<?xml version="1.0" encoding="UTF-8"?>
<gpx xmlns="http://www.topografix.com/GPX/1/1" xmlns:xsi="http://www.w3.org/2001/XMLSchema-instance" version="1.1" xsi:schemaLocation="http://www.topografix.com/GPX/1/1 http://www.topografix.com/GPX/1/1/gpx.xsd">
  <metadata>
    <name>Cotswolds Lake 62 Sprint Aquabike</name>
  </metadata>
  <trk>
    <name>Cotswolds Lake 62 Sprint Aquabike</name>
    <trkseg>
      <trkpt lat="51.658715" lon="-1.941749">
        <ele>88.102426</ele>
        <time>2022-05-21T09:08:00.000Z</time>
      </trkpt>
      <trkpt lat="51.659041" lon="-1.942058">
        <ele>88.102435</ele>
        <time>2022-05-21T09:08:04.000Z</time>
      </trkpt>
      <trkpt lat="51.659529" lon="-1.94224">
        <ele>88.102433</ele>
        <time>2022-05-21T09:08:10.000Z</time>
      </trkpt>
      <trkpt lat="51.660157" lon="-1.942262">
        <ele>88.849859</ele>
        <time>2022-05-21T09:08:17.000Z</time>
      </trkpt>
      <trkpt lat="51.66064" lon="-1.942155">
        <ele>89.452648</ele>
        <time>2022-05-21T09:08:22.000Z</time>
      </trkpt>
      <trkpt lat="51.661351" lon="-1.941478">
        <ele>90.416309</ele>
        <time>2022-05-21T09:08:31.000Z</time>
      </trkpt>
      <trkpt lat="51.661785" lon="-1.941513">
        <ele>90.728332</ele>
        <time>2022-05-21T09:08:36.000Z</time>
      </trkpt>
      <trkpt lat="51.662744" lon="-1.941506">
        <ele>91.437856</ele>
        <time>2022-05-21T09:08:47.000Z</time>
      </trkpt>
      <trkpt lat="51.665097" lon="-1.942213">
        <ele>92.322597</ele>
        <time>2022-05-21T09:09:14.000Z</time>
      </trkpt>
      <trkpt lat="51.666342" lon="-1.942241">
        <ele>92.773591</ele>
        <time>2022-05-21T09:09:28.000Z</time>
      </trkpt>
      <trkpt lat="51.666935" lon="-1.942132">
        <ele>93.037494</ele>
        <time>2022-05-21T09:09:35.000Z</time>
      </trkpt>
      <trkpt lat="51.667975" lon="-1.941849">
        <ele>93.592152</ele>
        <time>2022-05-21T09:09:47.000Z</time>
      </trkpt>
      <trkpt lat="51.668469" lon="-1.942027">
        <ele>93.787518</ele>
        <time>2022-05-21T09:09:53.000Z</time>
      </trkpt>
      <trkpt lat="51.668937" lon="-1.94234">
        <ele>93.75049</ele>
        <time>2022-05-21T09:09:59.000Z</time>
      </trkpt>
      <trkpt lat="51.669897" lon="-1.942445">
        <ele>93.679932</ele>
        <time>2022-05-21T09:10:10.000Z</time>
      </trkpt>
      <trkpt lat="51.669939" lon="-1.942469">
        <ele>93.675939</ele>
        <time>2022-05-21T09:10:10.000Z</time>
      </trkpt>
      <trkpt lat="51.671781" lon="-1.943841">
        <ele>92.734724</ele>
        <time>2022-05-21T09:10:33.000Z</time>
      </trkpt>
      <trkpt lat="51.673292" lon="-1.944968">
        <ele>92.628733</ele>
        <time>2022-05-21T09:10:52.000Z</time>
      </trkpt>
      <trkpt lat="51.675743" lon="-1.94616">
        <ele>93.629183</ele>
        <time>2022-05-21T09:11:20.000Z</time>
      </trkpt>
      <trkpt lat="51.677641" lon="-1.947183">
        <ele>94.616052</ele>
        <time>2022-05-21T09:11:42.000Z</time>
      </trkpt>
      <trkpt lat="51.678726" lon="-1.947926">
        <ele>95.277753</ele>
        <time>2022-05-21T09:11:55.000Z</time>
      </trkpt>
      <trkpt lat="51.679297" lon="-1.948088">
        <ele>95.702683</ele>
        <time>2022-05-21T09:12:01.000Z</time>
      </trkpt>
      <trkpt lat="51.679773" lon="-1.948215">
        <ele>96.059772</ele>
        <time>2022-05-21T09:12:06.000Z</time>
      </trkpt>
      <trkpt lat="51.681338" lon="-1.949065">
        <ele>97.501062</ele>
        <time>2022-05-21T09:12:24.000Z</time>
      </trkpt>
      <trkpt lat="51.682128" lon="-1.949577">
        <ele>98.177254</ele>
        <time>2022-05-21T09:12:33.000Z</time>
      </trkpt>
      <trkpt lat="51.683087" lon="-1.950187">
        <ele>98.640382</ele>
        <time>2022-05-21T09:12:44.000Z</time>
      </trkpt>
      <trkpt lat="51.684185" lon="-1.951038">
        <ele>98.772059</ele>
        <time>2022-05-21T09:12:58.000Z</time>
      </trkpt>
      <trkpt lat="51.685301" lon="-1.951768">
        <ele>98.575335</ele>
        <time>2022-05-21T09:13:11.000Z</time>
      </trkpt>
      <trkpt lat="51.687071" lon="-1.953288">
        <ele>98.006614</ele>
        <time>2022-05-21T09:13:33.000Z</time>
      </trkpt>
      <trkpt lat="51.687706" lon="-1.953985">
        <ele>97.954639</ele>
        <time>2022-05-21T09:13:42.000Z</time>
      </trkpt>
      <trkpt lat="51.687724" lon="-1.954015">
        <ele>97.953235</ele>
        <time>2022-05-21T09:13:42.000Z</time>
      </trkpt>
      <trkpt lat="51.688117" lon="-1.954431">
        <ele>97.922399</ele>
        <time>2022-05-21T09:13:47.000Z</time>
      </trkpt>
      <trkpt lat="51.688522" lon="-1.954579">
        <ele>97.985632</ele>
        <time>2022-05-21T09:13:52.000Z</time>
      </trkpt>
      <trkpt lat="51.68936" lon="-1.954554">
        <ele>98.366547</ele>
        <time>2022-05-21T09:14:01.000Z</time>
      </trkpt>
      <trkpt lat="51.690313" lon="-1.954228">
        <ele>98.891546</ele>
        <time>2022-05-21T09:14:12.000Z</time>
      </trkpt>
      <trkpt lat="51.691975" lon="-1.953544">
        <ele>100.320822</ele>
        <time>2022-05-21T09:14:31.000Z</time>
      </trkpt>
      <trkpt lat="51.692191" lon="-1.953445">
        <ele>100.482737</ele>
        <time>2022-05-21T09:14:33.000Z</time>
      </trkpt>
      <trkpt lat="51.692425" lon="-1.953333">
        <ele>100.659546</ele>
        <time>2022-05-21T09:14:36.000Z</time>
      </trkpt>
      <trkpt lat="51.693758" lon="-1.952606">
        <ele>101.589038</ele>
        <time>2022-05-21T09:14:52.000Z</time>
      </trkpt>
      <trkpt lat="51.693804" lon="-1.952604">
        <ele>101.601833</ele>
        <time>2022-05-21T09:14:53.000Z</time>
      </trkpt>
      <trkpt lat="51.694183" lon="-1.952508">
        <ele>101.72417</ele>
        <time>2022-05-21T09:14:57.000Z</time>
      </trkpt>
      <trkpt lat="51.694363" lon="-1.952478">
        <ele>101.776143</ele>
        <time>2022-05-21T09:14:59.000Z</time>
      </trkpt>
      <trkpt lat="51.694436" lon="-1.952464">
        <ele>101.801081</ele>
        <time>2022-05-21T09:15:00.000Z</time>
      </trkpt>
      <trkpt lat="51.694589" lon="-1.952422">
        <ele>101.848395</ele>
        <time>2022-05-21T09:15:02.000Z</time>
      </trkpt>
      <trkpt lat="51.694804" lon="-1.952369">
        <ele>101.91844</ele>
        <time>2022-05-21T09:15:04.000Z</time>
      </trkpt>
      <trkpt lat="51.695051" lon="-1.952332">
        <ele>101.992908</ele>
        <time>2022-05-21T09:15:07.000Z</time>
      </trkpt>
      <trkpt lat="51.695347" lon="-1.952283">
        <ele>102.084106</ele>
        <time>2022-05-21T09:15:10.000Z</time>
      </trkpt>
      <trkpt lat="51.696077" lon="-1.9521">
        <ele>102.152414</ele>
        <time>2022-05-21T09:15:18.000Z</time>
      </trkpt>
      <trkpt lat="51.696346" lon="-1.952035">
        <ele>102.175779</ele>
        <time>2022-05-21T09:15:21.000Z</time>
      </trkpt>
      <trkpt lat="51.696758" lon="-1.95191">
        <ele>102.211502</ele>
        <time>2022-05-21T09:15:26.000Z</time>
      </trkpt>
      <trkpt lat="51.697046" lon="-1.951836">
        <ele>102.237017</ele>
        <time>2022-05-21T09:15:29.000Z</time>
      </trkpt>
      <trkpt lat="51.697185" lon="-1.951764">
        <ele>102.297749</ele>
        <time>2022-05-21T09:15:31.000Z</time>
      </trkpt>
      <trkpt lat="51.697396" lon="-1.951621">
        <ele>102.508198</ele>
        <time>2022-05-21T09:15:34.000Z</time>
      </trkpt>
      <trkpt lat="51.697386" lon="-1.951801">
        <ele>102.614007</ele>
        <time>2022-05-21T09:15:35.000Z</time>
      </trkpt>
      <trkpt lat="51.697363" lon="-1.952227">
        <ele>102.869566</ele>
        <time>2022-05-21T09:15:38.000Z</time>
      </trkpt>
      <trkpt lat="51.697353" lon="-1.952241">
        <ele>102.876798</ele>
        <time>2022-05-21T09:15:38.000Z</time>
      </trkpt>
      <trkpt lat="51.697325" lon="-1.952781">
        <ele>103.204328</ele>
        <time>2022-05-21T09:15:42.000Z</time>
      </trkpt>
      <trkpt lat="51.697296" lon="-1.953154">
        <ele>103.43026</ele>
        <time>2022-05-21T09:15:45.000Z</time>
      </trkpt>
      <trkpt lat="51.697205" lon="-1.953719">
        <ele>103.780562</ele>
        <time>2022-05-21T09:15:49.000Z</time>
      </trkpt>
      <trkpt lat="51.697092" lon="-1.954264">
        <ele>104.38506</ele>
        <time>2022-05-21T09:15:53.000Z</time>
      </trkpt>
      <trkpt lat="51.697001" lon="-1.954838">
        <ele>105.340898</ele>
        <time>2022-05-21T09:15:57.000Z</time>
      </trkpt>
      <trkpt lat="51.696929" lon="-1.955627">
        <ele>106.640165</ele>
        <time>2022-05-21T09:16:02.000Z</time>
      </trkpt>
      <trkpt lat="51.696852" lon="-1.956787">
        <ele>108.559911</ele>
        <time>2022-05-21T09:16:10.000Z</time>
      </trkpt>
      <trkpt lat="51.696786" lon="-1.957722">
        <ele>110.065141</ele>
        <time>2022-05-21T09:16:16.000Z</time>
      </trkpt>
      <trkpt lat="51.696801" lon="-1.957833">
        <ele>110.265571</ele>
        <time>2022-05-21T09:16:17.000Z</time>
      </trkpt>
      <trkpt lat="51.696837" lon="-1.958714">
        <ele>111.698791</ele>
        <time>2022-05-21T09:16:23.000Z</time>
      </trkpt>
      <trkpt lat="51.696874" lon="-1.959549">
        <ele>113.028283</ele>
        <time>2022-05-21T09:16:29.000Z</time>
      </trkpt>
      <trkpt lat="51.696961" lon="-1.960647">
        <ele>113.706541</ele>
        <time>2022-05-21T09:16:37.000Z</time>
      </trkpt>
      <trkpt lat="51.696893" lon="-1.96162">
        <ele>114.036411</ele>
        <time>2022-05-21T09:16:44.000Z</time>
      </trkpt>
      <trkpt lat="51.696779" lon="-1.962088">
        <ele>114.205428</ele>
        <time>2022-05-21T09:16:47.000Z</time>
      </trkpt>
      <trkpt lat="51.696602" lon="-1.962485">
        <ele>114.370939</ele>
        <time>2022-05-21T09:16:50.000Z</time>
      </trkpt>
      <trkpt lat="51.696297" lon="-1.963028">
        <ele>114.434482</ele>
        <time>2022-05-21T09:16:55.000Z</time>
      </trkpt>
      <trkpt lat="51.69589" lon="-1.963469">
        <ele>114.48475</ele>
        <time>2022-05-21T09:17:00.000Z</time>
      </trkpt>
      <trkpt lat="51.695729" lon="-1.963902">
        <ele>114.517451</ele>
        <time>2022-05-21T09:17:03.000Z</time>
      </trkpt>
      <trkpt lat="51.69571" lon="-1.965963">
        <ele>114.287404</ele>
        <time>2022-05-21T09:17:17.000Z</time>
      </trkpt>
      <trkpt lat="51.695643" lon="-1.966516">
        <ele>114.136074</ele>
        <time>2022-05-21T09:17:21.000Z</time>
      </trkpt>
      <trkpt lat="51.69486" lon="-1.966543">
        <ele>113.77712</ele>
        <time>2022-05-21T09:17:30.000Z</time>
      </trkpt>
      <trkpt lat="51.694865" lon="-1.96656">
        <ele>113.777108</ele>
        <time>2022-05-21T09:17:30.000Z</time>
      </trkpt>
      <trkpt lat="51.693321" lon="-1.966585">
        <ele>111.732659</ele>
        <time>2022-05-21T09:17:47.000Z</time>
      </trkpt>
      <trkpt lat="51.692934" lon="-1.966611">
        <ele>111.147406</ele>
        <time>2022-05-21T09:17:51.000Z</time>
      </trkpt>
      <trkpt lat="51.692296" lon="-1.966818">
        <ele>109.971267</ele>
        <time>2022-05-21T09:17:58.000Z</time>
      </trkpt>
      <trkpt lat="51.691663" lon="-1.96698">
        <ele>108.822322</ele>
        <time>2022-05-21T09:18:05.000Z</time>
      </trkpt>
      <trkpt lat="51.691656" lon="-1.966988">
        <ele>108.802222</ele>
        <time>2022-05-21T09:18:05.000Z</time>
      </trkpt>
      <trkpt lat="51.690983" lon="-1.967136">
        <ele>107.77094</ele>
        <time>2022-05-21T09:18:13.000Z</time>
      </trkpt>
      <trkpt lat="51.690219" lon="-1.967317">
        <ele>106.834984</ele>
        <time>2022-05-21T09:18:22.000Z</time>
      </trkpt>
      <trkpt lat="51.689452" lon="-1.967619">
        <ele>106.057254</ele>
        <time>2022-05-21T09:18:31.000Z</time>
      </trkpt>
      <trkpt lat="51.688973" lon="-1.967844">
        <ele>106.41869</ele>
        <time>2022-05-21T09:18:37.000Z</time>
      </trkpt>
      <trkpt lat="51.688828" lon="-1.967922">
        <ele>106.539705</ele>
        <time>2022-05-21T09:18:39.000Z</time>
      </trkpt>
      <trkpt lat="51.688278" lon="-1.968231">
        <ele>106.979298</ele>
        <time>2022-05-21T09:18:45.000Z</time>
      </trkpt>
      <trkpt lat="51.68803" lon="-1.968372">
        <ele>107.170555</ele>
        <time>2022-05-21T09:18:48.000Z</time>
      </trkpt>
      <trkpt lat="51.687364" lon="-1.968799">
        <ele>107.690646</ele>
        <time>2022-05-21T09:18:56.000Z</time>
      </trkpt>
      <trkpt lat="51.687001" lon="-1.969111">
        <ele>107.978742</ele>
        <time>2022-05-21T09:19:01.000Z</time>
      </trkpt>
      <trkpt lat="51.686796" lon="-1.969201">
        <ele>108.135102</ele>
        <time>2022-05-21T09:19:03.000Z</time>
      </trkpt>
      <trkpt lat="51.686399" lon="-1.969264">
        <ele>108.427111</ele>
        <time>2022-05-21T09:19:07.000Z</time>
      </trkpt>
      <trkpt lat="51.685192" lon="-1.969278">
        <ele>107.887444</ele>
        <time>2022-05-21T09:19:20.000Z</time>
      </trkpt>
      <trkpt lat="51.684877" lon="-1.969201">
        <ele>107.647301</ele>
        <time>2022-05-21T09:19:24.000Z</time>
      </trkpt>
      <trkpt lat="51.683425" lon="-1.968535">
        <ele>105.887595</ele>
        <time>2022-05-21T09:19:41.000Z</time>
      </trkpt>
      <trkpt lat="51.682602" lon="-1.968662">
        <ele>104.750101</ele>
        <time>2022-05-21T09:19:50.000Z</time>
      </trkpt>
      <trkpt lat="51.680751" lon="-1.968787">
        <ele>102.452745</ele>
        <time>2022-05-21T09:20:11.000Z</time>
      </trkpt>
      <trkpt lat="51.679763" lon="-1.968955">
        <ele>101.379616</ele>
        <time>2022-05-21T09:20:22.000Z</time>
      </trkpt>
      <trkpt lat="51.679113" lon="-1.969007">
        <ele>100.675012</ele>
        <time>2022-05-21T09:20:29.000Z</time>
      </trkpt>
      <trkpt lat="51.677663" lon="-1.968948">
        <ele>98.991706</ele>
        <time>2022-05-21T09:20:45.000Z</time>
      </trkpt>
      <trkpt lat="51.676837" lon="-1.968861">
        <ele>98.09898</ele>
        <time>2022-05-21T09:20:54.000Z</time>
      </trkpt>
      <trkpt lat="51.675929" lon="-1.968945">
        <ele>97.227228</ele>
        <time>2022-05-21T09:21:04.000Z</time>
      </trkpt>
      <trkpt lat="51.674958" lon="-1.969051">
        <ele>96.710909</ele>
        <time>2022-05-21T09:21:15.000Z</time>
      </trkpt>
      <trkpt lat="51.672858" lon="-1.968891">
        <ele>96.966795</ele>
        <time>2022-05-21T09:21:38.000Z</time>
      </trkpt>
      <trkpt lat="51.671447" lon="-1.969105">
        <ele>97.522759</ele>
        <time>2022-05-21T09:21:54.000Z</time>
      </trkpt>
      <trkpt lat="51.670597" lon="-1.969062">
        <ele>97.640549</ele>
        <time>2022-05-21T09:22:03.000Z</time>
      </trkpt>
      <trkpt lat="51.669196" lon="-1.969307">
        <ele>97.033039</ele>
        <time>2022-05-21T09:22:19.000Z</time>
      </trkpt>
      <trkpt lat="51.668242" lon="-1.969064">
        <ele>96.279288</ele>
        <time>2022-05-21T09:22:30.000Z</time>
      </trkpt>
      <trkpt lat="51.667976" lon="-1.968921">
        <ele>96.10319</ele>
        <time>2022-05-21T09:22:33.000Z</time>
      </trkpt>
      <trkpt lat="51.66794" lon="-1.968906">
        <ele>96.07907</ele>
        <time>2022-05-21T09:22:33.000Z</time>
      </trkpt>
      <trkpt lat="51.667859" lon="-1.968861">
        <ele>96.029527</ele>
        <time>2022-05-21T09:22:34.000Z</time>
      </trkpt>
      <trkpt lat="51.667434" lon="-1.968512">
        <ele>95.730092</ele>
        <time>2022-05-21T09:22:39.000Z</time>
      </trkpt>
      <trkpt lat="51.667389" lon="-1.968523">
        <ele>95.698135</ele>
        <time>2022-05-21T09:22:40.000Z</time>
      </trkpt>
      <trkpt lat="51.667316" lon="-1.968583">
        <ele>95.653705</ele>
        <time>2022-05-21T09:22:41.000Z</time>
      </trkpt>
      <trkpt lat="51.667248" lon="-1.968637">
        <ele>95.607856</ele>
        <time>2022-05-21T09:22:42.000Z</time>
      </trkpt>
      <trkpt lat="51.667205" lon="-1.96876">
        <ele>95.553748</ele>
        <time>2022-05-21T09:22:43.000Z</time>
      </trkpt>
      <trkpt lat="51.667087" lon="-1.969733">
        <ele>95.170471</ele>
        <time>2022-05-21T09:22:50.000Z</time>
      </trkpt>
      <trkpt lat="51.666952" lon="-1.971444">
        <ele>94.67367</ele>
        <time>2022-05-21T09:23:02.000Z</time>
      </trkpt>
      <trkpt lat="51.666903" lon="-1.971576">
        <ele>94.627802</ele>
        <time>2022-05-21T09:23:03.000Z</time>
      </trkpt>
      <trkpt lat="51.66674" lon="-1.97176">
        <ele>94.53345</ele>
        <time>2022-05-21T09:23:05.000Z</time>
      </trkpt>
      <trkpt lat="51.666287" lon="-1.97186">
        <ele>94.327791</ele>
        <time>2022-05-21T09:23:10.000Z</time>
      </trkpt>
      <trkpt lat="51.66612" lon="-1.971814">
        <ele>94.285781</ele>
        <time>2022-05-21T09:23:12.000Z</time>
      </trkpt>
      <trkpt lat="51.6655" lon="-1.971585">
        <ele>94.133336</ele>
        <time>2022-05-21T09:23:19.000Z</time>
      </trkpt>
      <trkpt lat="51.664301" lon="-1.971721">
        <ele>94.019432</ele>
        <time>2022-05-21T09:23:32.000Z</time>
      </trkpt>
      <trkpt lat="51.663511" lon="-1.972023">
        <ele>94.410755</ele>
        <time>2022-05-21T09:23:41.000Z</time>
      </trkpt>
      <trkpt lat="51.663009" lon="-1.972309">
        <ele>94.662522</ele>
        <time>2022-05-21T09:23:47.000Z</time>
      </trkpt>
      <trkpt lat="51.662562" lon="-1.972827">
        <ele>94.877798</ele>
        <time>2022-05-21T09:23:53.000Z</time>
      </trkpt>
      <trkpt lat="51.661927" lon="-1.973461">
        <ele>95.125323</ele>
        <time>2022-05-21T09:24:01.000Z</time>
      </trkpt>
      <trkpt lat="51.661306" lon="-1.974096">
        <ele>95.367731</ele>
        <time>2022-05-21T09:24:09.000Z</time>
      </trkpt>
      <trkpt lat="51.660625" lon="-1.97436">
        <ele>95.413135</ele>
        <time>2022-05-21T09:24:17.000Z</time>
      </trkpt>
      <trkpt lat="51.660558" lon="-1.974404">
        <ele>95.418217</ele>
        <time>2022-05-21T09:24:18.000Z</time>
      </trkpt>
      <trkpt lat="51.660046" lon="-1.974637">
        <ele>95.453068</ele>
        <time>2022-05-21T09:24:24.000Z</time>
      </trkpt>
      <trkpt lat="51.659551" lon="-1.974823">
        <ele>95.474756</ele>
        <time>2022-05-21T09:24:30.000Z</time>
      </trkpt>
      <trkpt lat="51.659506" lon="-1.974857">
        <ele>95.448366</ele>
        <time>2022-05-21T09:24:31.000Z</time>
      </trkpt>
      <trkpt lat="51.65911" lon="-1.974987">
        <ele>95.27954</ele>
        <time>2022-05-21T09:24:35.000Z</time>
      </trkpt>
      <trkpt lat="51.659024" lon="-1.974996">
        <ele>95.241365</ele>
        <time>2022-05-21T09:24:36.000Z</time>
      </trkpt>
      <trkpt lat="51.65888" lon="-1.974982">
        <ele>95.179931</ele>
        <time>2022-05-21T09:24:38.000Z</time>
      </trkpt>
      <trkpt lat="51.658763" lon="-1.974953">
        <ele>95.129264</ele>
        <time>2022-05-21T09:24:39.000Z</time>
      </trkpt>
      <trkpt lat="51.658572" lon="-1.974933">
        <ele>95.048809</ele>
        <time>2022-05-21T09:24:41.000Z</time>
      </trkpt>
      <trkpt lat="51.658501" lon="-1.974916">
        <ele>95.01652</ele>
        <time>2022-05-21T09:24:42.000Z</time>
      </trkpt>
      <trkpt lat="51.658277" lon="-1.974853">
        <ele>94.914294</ele>
        <time>2022-05-21T09:24:45.000Z</time>
      </trkpt>
      <trkpt lat="51.658102" lon="-1.974774">
        <ele>94.836701</ele>
        <time>2022-05-21T09:24:47.000Z</time>
      </trkpt>
      <trkpt lat="51.657959" lon="-1.974659">
        <ele>94.769412</ele>
        <time>2022-05-21T09:24:49.000Z</time>
      </trkpt>
      <trkpt lat="51.65792" lon="-1.974655">
        <ele>94.755446</ele>
        <time>2022-05-21T09:24:49.000Z</time>
      </trkpt>
      <trkpt lat="51.657769" lon="-1.974573">
        <ele>94.644281</ele>
        <time>2022-05-21T09:24:51.000Z</time>
      </trkpt>
      <trkpt lat="51.65749" lon="-1.974477">
        <ele>94.332429</ele>
        <time>2022-05-21T09:24:54.000Z</time>
      </trkpt>
      <trkpt lat="51.657126" lon="-1.974107">
        <ele>93.872566</ele>
        <time>2022-05-21T09:24:59.000Z</time>
      </trkpt>
      <trkpt lat="51.657104" lon="-1.974085">
        <ele>93.836274</ele>
        <time>2022-05-21T09:24:59.000Z</time>
      </trkpt>
      <trkpt lat="51.65693" lon="-1.973895">
        <ele>93.608125</ele>
        <time>2022-05-21T09:25:01.000Z</time>
      </trkpt>
      <trkpt lat="51.656889" lon="-1.973865">
        <ele>93.553862</ele>
        <time>2022-05-21T09:25:02.000Z</time>
      </trkpt>
      <trkpt lat="51.656693" lon="-1.973659">
        <ele>93.29711</ele>
        <time>2022-05-21T09:25:05.000Z</time>
      </trkpt>
      <trkpt lat="51.656424" lon="-1.97344">
        <ele>92.975514</ele>
        <time>2022-05-21T09:25:08.000Z</time>
      </trkpt>
      <trkpt lat="51.656153" lon="-1.973336">
        <ele>92.697389</ele>
        <time>2022-05-21T09:25:11.000Z</time>
      </trkpt>
      <trkpt lat="51.655857" lon="-1.973295">
        <ele>92.460828</ele>
        <time>2022-05-21T09:25:14.000Z</time>
      </trkpt>
      <trkpt lat="51.655738" lon="-1.97329">
        <ele>92.358762</ele>
        <time>2022-05-21T09:25:15.000Z</time>
      </trkpt>
      <trkpt lat="51.6556" lon="-1.973253">
        <ele>92.25217</ele>
        <time>2022-05-21T09:25:17.000Z</time>
      </trkpt>
      <trkpt lat="51.655414" lon="-1.973197">
        <ele>92.105266</ele>
        <time>2022-05-21T09:25:19.000Z</time>
      </trkpt>
      <trkpt lat="51.654725" lon="-1.972957">
        <ele>91.543026</ele>
        <time>2022-05-21T09:25:27.000Z</time>
      </trkpt>
      <trkpt lat="51.654422" lon="-1.972823">
        <ele>91.323259</ele>
        <time>2022-05-21T09:25:30.000Z</time>
      </trkpt>
      <trkpt lat="51.654209" lon="-1.972708">
        <ele>91.268075</ele>
        <time>2022-05-21T09:25:32.000Z</time>
      </trkpt>
      <trkpt lat="51.653959" lon="-1.972571">
        <ele>91.205527</ele>
        <time>2022-05-21T09:25:35.000Z</time>
      </trkpt>
      <trkpt lat="51.653919" lon="-1.972546">
        <ele>91.194426</ele>
        <time>2022-05-21T09:25:35.000Z</time>
      </trkpt>
      <trkpt lat="51.653389" lon="-1.972264">
        <ele>91.06002</ele>
        <time>2022-05-21T09:25:41.000Z</time>
      </trkpt>
      <trkpt lat="51.653065" lon="-1.972221">
        <ele>90.983785</ele>
        <time>2022-05-21T09:25:45.000Z</time>
      </trkpt>
      <trkpt lat="51.652829" lon="-1.972171">
        <ele>90.928252</ele>
        <time>2022-05-21T09:25:48.000Z</time>
      </trkpt>
      <trkpt lat="51.652566" lon="-1.972383">
        <ele>90.848305</ele>
        <time>2022-05-21T09:25:51.000Z</time>
      </trkpt>
      <trkpt lat="51.652363" lon="-1.973335">
        <ele>90.66936</ele>
        <time>2022-05-21T09:25:58.000Z</time>
      </trkpt>
      <trkpt lat="51.651743" lon="-1.974469">
        <ele>90.404363</ele>
        <time>2022-05-21T09:26:08.000Z</time>
      </trkpt>
      <trkpt lat="51.651705" lon="-1.974549">
        <ele>90.38191</ele>
        <time>2022-05-21T09:26:09.000Z</time>
      </trkpt>
      <trkpt lat="51.651608" lon="-1.974661">
        <ele>90.350766</ele>
        <time>2022-05-21T09:26:10.000Z</time>
      </trkpt>
      <trkpt lat="51.651509" lon="-1.974772">
        <ele>90.315379</ele>
        <time>2022-05-21T09:26:11.000Z</time>
      </trkpt>
      <trkpt lat="51.651383" lon="-1.974847">
        <ele>90.280274</ele>
        <time>2022-05-21T09:26:12.000Z</time>
      </trkpt>
      <trkpt lat="51.65132" lon="-1.974868">
        <ele>90.261308</ele>
        <time>2022-05-21T09:26:13.000Z</time>
      </trkpt>
      <trkpt lat="51.650611" lon="-1.974805">
        <ele>90.057627</ele>
        <time>2022-05-21T09:26:21.000Z</time>
      </trkpt>
      <trkpt lat="51.650619" lon="-1.974706">
        <ele>90.039519</ele>
        <time>2022-05-21T09:26:22.000Z</time>
      </trkpt>
      <trkpt lat="51.650635" lon="-1.974382">
        <ele>89.981052</ele>
        <time>2022-05-21T09:26:24.000Z</time>
      </trkpt>
      <trkpt lat="51.650632" lon="-1.974369">
        <ele>89.97982</ele>
        <time>2022-05-21T09:26:24.000Z</time>
      </trkpt>
      <trkpt lat="51.650686" lon="-1.973412">
        <ele>89.830755</ele>
        <time>2022-05-21T09:26:31.000Z</time>
      </trkpt>
      <trkpt lat="51.650701" lon="-1.973126">
        <ele>89.793214</ele>
        <time>2022-05-21T09:26:33.000Z</time>
      </trkpt>
      <trkpt lat="51.650734" lon="-1.972892">
        <ele>89.764802</ele>
        <time>2022-05-21T09:26:35.000Z</time>
      </trkpt>
      <trkpt lat="51.650772" lon="-1.97213">
        <ele>89.66643</ele>
        <time>2022-05-21T09:26:40.000Z</time>
      </trkpt>
      <trkpt lat="51.650924" lon="-1.971075">
        <ele>89.532081</ele>
        <time>2022-05-21T09:26:47.000Z</time>
      </trkpt>
      <trkpt lat="51.650946" lon="-1.970872">
        <ele>89.497638</ele>
        <time>2022-05-21T09:26:48.000Z</time>
      </trkpt>
      <trkpt lat="51.651143" lon="-1.969822">
        <ele>89.22533</ele>
        <time>2022-05-21T09:26:56.000Z</time>
      </trkpt>
      <trkpt lat="51.651488" lon="-1.968637">
        <ele>88.903858</ele>
        <time>2022-05-21T09:27:05.000Z</time>
      </trkpt>
      <trkpt lat="51.652001" lon="-1.967173">
        <ele>88.764097</ele>
        <time>2022-05-21T09:27:17.000Z</time>
      </trkpt>
      <trkpt lat="51.652395" lon="-1.966331">
        <ele>88.73761</ele>
        <time>2022-05-21T09:27:24.000Z</time>
      </trkpt>
      <trkpt lat="51.652866" lon="-1.965484">
        <ele>88.767186</ele>
        <time>2022-05-21T09:27:32.000Z</time>
      </trkpt>
      <trkpt lat="51.653156" lon="-1.96488">
        <ele>88.834011</ele>
        <time>2022-05-21T09:27:37.000Z</time>
      </trkpt>
      <trkpt lat="51.653797" lon="-1.963638">
        <ele>88.963361</ele>
        <time>2022-05-21T09:27:48.000Z</time>
      </trkpt>
      <trkpt lat="51.653946" lon="-1.963322">
        <ele>88.805328</ele>
        <time>2022-05-21T09:27:51.000Z</time>
      </trkpt>
      <trkpt lat="51.654297" lon="-1.962333">
        <ele>88.343438</ele>
        <time>2022-05-21T09:27:59.000Z</time>
      </trkpt>
      <trkpt lat="51.65462" lon="-1.961269">
        <ele>87.858761</ele>
        <time>2022-05-21T09:28:07.000Z</time>
      </trkpt>
      <trkpt lat="51.654784" lon="-1.960598">
        <ele>87.815382</ele>
        <time>2022-05-21T09:28:12.000Z</time>
      </trkpt>
      <trkpt lat="51.6549" lon="-1.960049">
        <ele>87.841967</ele>
        <time>2022-05-21T09:28:16.000Z</time>
      </trkpt>
      <trkpt lat="51.656321" lon="-1.953595">
        <ele>88.531877</ele>
        <time>2022-05-21T09:29:03.000Z</time>
      </trkpt>
      <trkpt lat="51.656338" lon="-1.953208">
        <ele>88.61626</ele>
        <time>2022-05-21T09:29:06.000Z</time>
      </trkpt>
      <trkpt lat="51.655945" lon="-1.948956">
        <ele>89.403364</ele>
        <time>2022-05-21T09:29:36.000Z</time>
      </trkpt>
      <trkpt lat="51.655864" lon="-1.948159">
        <ele>89.394059</ele>
        <time>2022-05-21T09:29:42.000Z</time>
      </trkpt>
      <trkpt lat="51.655201" lon="-1.943527">
        <ele>88.836005</ele>
        <time>2022-05-21T09:30:15.000Z</time>
      </trkpt>
      <trkpt lat="51.654962" lon="-1.941849">
        <ele>88.91743</ele>
        <time>2022-05-21T09:30:27.000Z</time>
      </trkpt>
      <trkpt lat="51.654728" lon="-1.940619">
        <ele>88.876741</ele>
        <time>2022-05-21T09:30:36.000Z</time>
      </trkpt>
      <trkpt lat="51.654712" lon="-1.940558">
        <ele>88.873062</ele>
        <time>2022-05-21T09:30:36.000Z</time>
      </trkpt>
      <trkpt lat="51.6545" lon="-1.939477">
        <ele>88.805058</ele>
        <time>2022-05-21T09:30:44.000Z</time>
      </trkpt>
      <trkpt lat="51.654487" lon="-1.939041">
        <ele>88.779398</ele>
        <time>2022-05-21T09:30:47.000Z</time>
      </trkpt>
      <trkpt lat="51.654589" lon="-1.939076">
        <ele>88.769422</ele>
        <time>2022-05-21T09:30:48.000Z</time>
      </trkpt>
      <trkpt lat="51.655205" lon="-1.939303">
        <ele>88.145701</ele>
        <time>2022-05-21T09:30:55.000Z</time>
      </trkpt>
      <trkpt lat="51.655628" lon="-1.939603">
        <ele>87.621822</ele>
        <time>2022-05-21T09:31:00.000Z</time>
      </trkpt>
      <trkpt lat="51.655761" lon="-1.939695">
        <ele>87.455954</ele>
        <time>2022-05-21T09:31:02.000Z</time>
      </trkpt>
      <trkpt lat="51.65648" lon="-1.940176">
        <ele>86.685336</ele>
        <time>2022-05-21T09:31:11.000Z</time>
      </trkpt>
      <trkpt lat="51.657031" lon="-1.94042">
        <ele>86.544973</ele>
        <time>2022-05-21T09:31:17.000Z</time>
      </trkpt>
      <trkpt lat="51.657642" lon="-1.940839">
        <ele>86.386782</ele>
        <time>2022-05-21T09:31:24.000Z</time>
      </trkpt>
      <trkpt lat="51.658253" lon="-1.941348">
        <ele>86.533141</ele>
        <time>2022-05-21T09:31:32.000Z</time>
      </trkpt>
      <trkpt lat="51.658247" lon="-1.941347">
        <ele>86.533134</ele>
        <time>2022-05-21T09:31:32.000Z</time>
      </trkpt>
      <trkpt lat="51.658237" lon="-1.941355">
        <ele>86.533132</ele>
        <time>2022-05-21T09:31:32.000Z</time>
      </trkpt>
      <trkpt lat="51.658442" lon="-1.941514">
        <ele>86.764947</ele>
        <time>2022-05-21T09:31:35.000Z</time>
      </trkpt>
      <trkpt lat="51.658719" lon="-1.941763">
        <ele>87.085235</ele>
        <time>2022-05-21T09:31:39.000Z</time>
      </trkpt>
      <trkpt lat="51.659037" lon="-1.942045">
        <ele>87.474467</ele>
        <time>2022-05-21T09:31:43.000Z</time>
      </trkpt>
      <trkpt lat="51.659514" lon="-1.942231">
        <ele>87.989967</ele>
        <time>2022-05-21T09:31:48.000Z</time>
      </trkpt>
      <trkpt lat="51.660164" lon="-1.942265">
        <ele>88.766033</ele>
        <time>2022-05-21T09:31:55.000Z</time>
      </trkpt>
      <trkpt lat="51.660646" lon="-1.942148">
        <ele>89.392757</ele>
        <time>2022-05-21T09:32:00.000Z</time>
      </trkpt>
      <trkpt lat="51.661353" lon="-1.941485">
        <ele>90.457136</ele>
        <time>2022-05-21T09:32:09.000Z</time>
      </trkpt>
      <trkpt lat="51.66178" lon="-1.941513">
        <ele>90.751104</ele>
        <time>2022-05-21T09:32:14.000Z</time>
      </trkpt>
      <trkpt lat="51.66275" lon="-1.94151">
        <ele>91.415251</ele>
        <time>2022-05-21T09:32:25.000Z</time>
      </trkpt>
      <trkpt lat="51.665098" lon="-1.942214">
        <ele>92.318007</ele>
        <time>2022-05-21T09:32:52.000Z</time>
      </trkpt>
      <trkpt lat="51.66634" lon="-1.942239">
        <ele>92.785824</ele>
        <time>2022-05-21T09:33:06.000Z</time>
      </trkpt>
      <trkpt lat="51.666926" lon="-1.94214">
        <ele>93.032075</ele>
        <time>2022-05-21T09:33:13.000Z</time>
      </trkpt>
      <trkpt lat="51.667989" lon="-1.941844">
        <ele>93.572953</ele>
        <time>2022-05-21T09:33:25.000Z</time>
      </trkpt>
      <trkpt lat="51.668479" lon="-1.942037">
        <ele>93.829085</ele>
        <time>2022-05-21T09:33:31.000Z</time>
      </trkpt>
      <trkpt lat="51.668944" lon="-1.942346">
        <ele>93.771506</ele>
        <time>2022-05-21T09:33:37.000Z</time>
      </trkpt>
      <trkpt lat="51.669888" lon="-1.942455">
        <ele>93.650405</ele>
        <time>2022-05-21T09:33:48.000Z</time>
      </trkpt>
      <trkpt lat="51.66994" lon="-1.942462">
        <ele>93.643554</ele>
        <time>2022-05-21T09:33:49.000Z</time>
      </trkpt>
      <trkpt lat="51.671776" lon="-1.943828">
        <ele>92.732513</ele>
        <time>2022-05-21T09:34:11.000Z</time>
      </trkpt>
      <trkpt lat="51.673294" lon="-1.944962">
        <ele>92.656525</ele>
        <time>2022-05-21T09:34:30.000Z</time>
      </trkpt>
      <trkpt lat="51.675749" lon="-1.946161">
        <ele>93.627559</ele>
        <time>2022-05-21T09:34:59.000Z</time>
      </trkpt>
      <trkpt lat="51.677636" lon="-1.947188">
        <ele>94.617943</ele>
        <time>2022-05-21T09:35:21.000Z</time>
      </trkpt>
      <trkpt lat="51.67872" lon="-1.947927">
        <ele>95.261901</ele>
        <time>2022-05-21T09:35:34.000Z</time>
      </trkpt>
      <trkpt lat="51.679292" lon="-1.948084">
        <ele>95.70135</ele>
        <time>2022-05-21T09:35:40.000Z</time>
      </trkpt>
      <trkpt lat="51.679772" lon="-1.948211">
        <ele>96.070651</ele>
        <time>2022-05-21T09:35:45.000Z</time>
      </trkpt>
      <trkpt lat="51.681331" lon="-1.949066">
        <ele>97.489112</ele>
        <time>2022-05-21T09:36:03.000Z</time>
      </trkpt>
      <trkpt lat="51.682134" lon="-1.94957">
        <ele>98.209283</ele>
        <time>2022-05-21T09:36:13.000Z</time>
      </trkpt>
      <trkpt lat="51.683087" lon="-1.950193">
        <ele>98.623674</ele>
        <time>2022-05-21T09:36:24.000Z</time>
      </trkpt>
      <trkpt lat="51.684176" lon="-1.951031">
        <ele>98.784387</ele>
        <time>2022-05-21T09:36:37.000Z</time>
      </trkpt>
      <trkpt lat="51.685311" lon="-1.951765">
        <ele>98.573584</ele>
        <time>2022-05-21T09:36:51.000Z</time>
      </trkpt>
      <trkpt lat="51.687088" lon="-1.953292">
        <ele>97.987809</ele>
        <time>2022-05-21T09:37:13.000Z</time>
      </trkpt>
      <trkpt lat="51.687714" lon="-1.953985">
        <ele>97.960662</ele>
        <time>2022-05-21T09:37:21.000Z</time>
      </trkpt>
      <trkpt lat="51.687735" lon="-1.954013">
        <ele>97.959932</ele>
        <time>2022-05-21T09:37:21.000Z</time>
      </trkpt>
      <trkpt lat="51.688099" lon="-1.954431">
        <ele>97.943804</ele>
        <time>2022-05-21T09:37:26.000Z</time>
      </trkpt>
      <trkpt lat="51.688532" lon="-1.954568">
        <ele>97.956623</ele>
        <time>2022-05-21T09:37:31.000Z</time>
      </trkpt>
      <trkpt lat="51.689351" lon="-1.954553">
        <ele>98.368115</ele>
        <time>2022-05-21T09:37:40.000Z</time>
      </trkpt>
      <trkpt lat="51.690322" lon="-1.954225">
        <ele>98.879327</ele>
        <time>2022-05-21T09:37:51.000Z</time>
      </trkpt>
      <trkpt lat="51.691979" lon="-1.953546">
        <ele>100.330015</ele>
        <time>2022-05-21T09:38:10.000Z</time>
      </trkpt>
      <trkpt lat="51.692202" lon="-1.953444">
        <ele>100.490754</ele>
        <time>2022-05-21T09:38:13.000Z</time>
      </trkpt>
      <trkpt lat="51.692437" lon="-1.95333">
        <ele>100.663518</ele>
        <time>2022-05-21T09:38:16.000Z</time>
      </trkpt>
      <trkpt lat="51.693751" lon="-1.952612">
        <ele>101.619565</ele>
        <time>2022-05-21T09:38:31.000Z</time>
      </trkpt>
      <trkpt lat="51.693792" lon="-1.952613">
        <ele>101.631043</ele>
        <time>2022-05-21T09:38:31.000Z</time>
      </trkpt>
      <trkpt lat="51.694179" lon="-1.952507">
        <ele>101.740969</ele>
        <time>2022-05-21T09:38:35.000Z</time>
      </trkpt>
      <trkpt lat="51.694351" lon="-1.952476">
        <ele>101.78765</ele>
        <time>2022-05-21T09:38:37.000Z</time>
      </trkpt>
      <trkpt lat="51.694435" lon="-1.952466">
        <ele>101.810044</ele>
        <time>2022-05-21T09:38:38.000Z</time>
      </trkpt>
      <trkpt lat="51.694594" lon="-1.952418">
        <ele>101.85254</ele>
        <time>2022-05-21T09:38:40.000Z</time>
      </trkpt>
      <trkpt lat="51.694811" lon="-1.952365">
        <ele>101.915479</ele>
        <time>2022-05-21T09:38:42.000Z</time>
      </trkpt>
      <trkpt lat="51.695054" lon="-1.952323">
        <ele>101.982365</ele>
        <time>2022-05-21T09:38:45.000Z</time>
      </trkpt>
      <trkpt lat="51.695347" lon="-1.952271">
        <ele>102.064298</ele>
        <time>2022-05-21T09:38:48.000Z</time>
      </trkpt>
      <trkpt lat="51.696086" lon="-1.952101">
        <ele>102.161683</ele>
        <time>2022-05-21T09:38:56.000Z</time>
      </trkpt>
      <trkpt lat="51.696359" lon="-1.952028">
        <ele>102.18782</ele>
        <time>2022-05-21T09:38:59.000Z</time>
      </trkpt>
      <trkpt lat="51.696763" lon="-1.951908">
        <ele>102.227781</ele>
        <time>2022-05-21T09:39:04.000Z</time>
      </trkpt>
      <trkpt lat="51.697041" lon="-1.95182">
        <ele>102.25634</ele>
        <time>2022-05-21T09:39:07.000Z</time>
      </trkpt>
      <trkpt lat="51.697188" lon="-1.951754">
        <ele>102.270624</ele>
        <time>2022-05-21T09:39:09.000Z</time>
      </trkpt>
      <trkpt lat="51.697396" lon="-1.951616">
        <ele>102.438177</ele>
        <time>2022-05-21T09:39:12.000Z</time>
      </trkpt>
      <trkpt lat="51.697379" lon="-1.95179">
        <ele>102.555798</ele>
        <time>2022-05-21T09:39:13.000Z</time>
      </trkpt>
      <trkpt lat="51.697368" lon="-1.952228">
        <ele>102.839957</ele>
        <time>2022-05-21T09:39:16.000Z</time>
      </trkpt>
      <trkpt lat="51.697363" lon="-1.95223">
        <ele>102.848003</ele>
        <time>2022-05-21T09:39:16.000Z</time>
      </trkpt>
      <trkpt lat="51.697332" lon="-1.952775">
        <ele>103.212158</ele>
        <time>2022-05-21T09:39:20.000Z</time>
      </trkpt>
      <trkpt lat="51.697296" lon="-1.953158">
        <ele>103.463343</ele>
        <time>2022-05-21T09:39:23.000Z</time>
      </trkpt>
      <trkpt lat="51.697219" lon="-1.953727">
        <ele>103.852838</ele>
        <time>2022-05-21T09:39:27.000Z</time>
      </trkpt>
      <trkpt lat="51.697092" lon="-1.954265">
        <ele>104.290216</ele>
        <time>2022-05-21T09:39:31.000Z</time>
      </trkpt>
      <trkpt lat="51.696998" lon="-1.954838">
        <ele>105.280117</ele>
        <time>2022-05-21T09:39:35.000Z</time>
      </trkpt>
      <trkpt lat="51.696931" lon="-1.95562">
        <ele>106.625666</ele>
        <time>2022-05-21T09:39:40.000Z</time>
      </trkpt>
      <trkpt lat="51.696841" lon="-1.956793">
        <ele>108.613824</ele>
        <time>2022-05-21T09:39:48.000Z</time>
      </trkpt>
      <trkpt lat="51.696792" lon="-1.957721">
        <ele>110.094005</ele>
        <time>2022-05-21T09:39:54.000Z</time>
      </trkpt>
      <trkpt lat="51.696785" lon="-1.95783">
        <ele>110.285305</ele>
        <time>2022-05-21T09:39:55.000Z</time>
      </trkpt>
      <trkpt lat="51.696849" lon="-1.958722">
        <ele>111.653268</ele>
        <time>2022-05-21T09:40:01.000Z</time>
      </trkpt>
      <trkpt lat="51.696878" lon="-1.959544">
        <ele>112.92222</ele>
        <time>2022-05-21T09:40:07.000Z</time>
      </trkpt>
      <trkpt lat="51.696963" lon="-1.96064">
        <ele>113.778867</ele>
        <time>2022-05-21T09:40:15.000Z</time>
      </trkpt>
      <trkpt lat="51.696891" lon="-1.961609">
        <ele>114.047072</ele>
        <time>2022-05-21T09:40:22.000Z</time>
      </trkpt>
      <trkpt lat="51.696773" lon="-1.962072">
        <ele>114.184471</ele>
        <time>2022-05-21T09:40:25.000Z</time>
      </trkpt>
      <trkpt lat="51.696589" lon="-1.962488">
        <ele>114.319024</ele>
        <time>2022-05-21T09:40:29.000Z</time>
      </trkpt>
      <trkpt lat="51.696297" lon="-1.963017">
        <ele>114.422042</ele>
        <time>2022-05-21T09:40:34.000Z</time>
      </trkpt>
      <trkpt lat="51.695892" lon="-1.963452">
        <ele>114.474994</ele>
        <time>2022-05-21T09:40:39.000Z</time>
      </trkpt>
      <trkpt lat="51.69573" lon="-1.963899">
        <ele>114.509457</ele>
        <time>2022-05-21T09:40:43.000Z</time>
      </trkpt>
      <trkpt lat="51.695714" lon="-1.965964">
        <ele>114.304022</ele>
        <time>2022-05-21T09:40:57.000Z</time>
      </trkpt>
      <trkpt lat="51.695646" lon="-1.966522">
        <ele>114.124858</ele>
        <time>2022-05-21T09:41:01.000Z</time>
      </trkpt>
      <trkpt lat="51.694859" lon="-1.966545">
        <ele>113.733587</ele>
        <time>2022-05-21T09:41:10.000Z</time>
      </trkpt>
      <trkpt lat="51.694866" lon="-1.966549">
        <ele>113.7336</ele>
        <time>2022-05-21T09:41:10.000Z</time>
      </trkpt>
      <trkpt lat="51.693314" lon="-1.966578">
        <ele>111.715712</ele>
        <time>2022-05-21T09:41:27.000Z</time>
      </trkpt>
      <trkpt lat="51.692938" lon="-1.966599">
        <ele>111.175531</ele>
        <time>2022-05-21T09:41:31.000Z</time>
      </trkpt>
      <trkpt lat="51.692303" lon="-1.966818">
        <ele>109.985689</ele>
        <time>2022-05-21T09:41:38.000Z</time>
      </trkpt>
      <trkpt lat="51.691674" lon="-1.966985">
        <ele>108.823346</ele>
        <time>2022-05-21T09:41:45.000Z</time>
      </trkpt>
      <trkpt lat="51.69165" lon="-1.966975">
        <ele>108.803005</ele>
        <time>2022-05-21T09:41:45.000Z</time>
      </trkpt>
      <trkpt lat="51.690989" lon="-1.967144">
        <ele>107.717395</ele>
        <time>2022-05-21T09:41:52.000Z</time>
      </trkpt>
      <trkpt lat="51.690228" lon="-1.967311">
        <ele>106.874477</ele>
        <time>2022-05-21T09:42:01.000Z</time>
      </trkpt>
      <trkpt lat="51.689453" lon="-1.96761">
        <ele>105.986562</ele>
        <time>2022-05-21T09:42:10.000Z</time>
      </trkpt>
      <trkpt lat="51.688985" lon="-1.96784">
        <ele>106.359052</ele>
        <time>2022-05-21T09:42:15.000Z</time>
      </trkpt>
      <trkpt lat="51.688819" lon="-1.967919">
        <ele>106.494942</ele>
        <time>2022-05-21T09:42:17.000Z</time>
      </trkpt>
      <trkpt lat="51.688262" lon="-1.96823">
        <ele>106.988671</ele>
        <time>2022-05-21T09:42:24.000Z</time>
      </trkpt>
      <trkpt lat="51.688026" lon="-1.968369">
        <ele>107.203476</ele>
        <time>2022-05-21T09:42:27.000Z</time>
      </trkpt>
      <trkpt lat="51.687367" lon="-1.968804">
        <ele>107.719376</ele>
        <time>2022-05-21T09:42:35.000Z</time>
      </trkpt>
      <trkpt lat="51.687008" lon="-1.969105">
        <ele>107.96902</ele>
        <time>2022-05-21T09:42:39.000Z</time>
      </trkpt>
      <trkpt lat="51.686797" lon="-1.969199">
        <ele>108.104486</ele>
        <time>2022-05-21T09:42:41.000Z</time>
      </trkpt>
      <trkpt lat="51.686394" lon="-1.969254">
        <ele>108.357509</ele>
        <time>2022-05-21T09:42:45.000Z</time>
      </trkpt>
      <trkpt lat="51.685192" lon="-1.969277">
        <ele>107.897829</ele>
        <time>2022-05-21T09:42:58.000Z</time>
      </trkpt>
      <trkpt lat="51.68489" lon="-1.969201">
        <ele>107.632507</ele>
        <time>2022-05-21T09:43:01.000Z</time>
      </trkpt>
      <trkpt lat="51.683423" lon="-1.968536">
        <ele>105.894756</ele>
        <time>2022-05-21T09:43:18.000Z</time>
      </trkpt>
      <trkpt lat="51.682605" lon="-1.968651">
        <ele>104.755767</ele>
        <time>2022-05-21T09:43:27.000Z</time>
      </trkpt>
      <trkpt lat="51.680744" lon="-1.96879">
        <ele>102.45638</ele>
        <time>2022-05-21T09:43:48.000Z</time>
      </trkpt>
      <trkpt lat="51.679759" lon="-1.968962">
        <ele>101.374626</ele>
        <time>2022-05-21T09:43:59.000Z</time>
      </trkpt>
      <trkpt lat="51.679119" lon="-1.969006">
        <ele>100.669783</ele>
        <time>2022-05-21T09:44:06.000Z</time>
      </trkpt>
      <trkpt lat="51.677668" lon="-1.96894">
        <ele>98.993508</ele>
        <time>2022-05-21T09:44:22.000Z</time>
      </trkpt>
      <trkpt lat="51.676836" lon="-1.968869">
        <ele>98.086156</ele>
        <time>2022-05-21T09:44:31.000Z</time>
      </trkpt>
      <trkpt lat="51.675924" lon="-1.968939">
        <ele>97.255205</ele>
        <time>2022-05-21T09:44:41.000Z</time>
      </trkpt>
      <trkpt lat="51.674954" lon="-1.969052">
        <ele>96.676895</ele>
        <time>2022-05-21T09:44:52.000Z</time>
      </trkpt>
      <trkpt lat="51.67286" lon="-1.9689">
        <ele>96.95167</ele>
        <time>2022-05-21T09:45:15.000Z</time>
      </trkpt>
      <trkpt lat="51.671459" lon="-1.969104">
        <ele>97.56416</ele>
        <time>2022-05-21T09:45:31.000Z</time>
      </trkpt>
      <trkpt lat="51.670598" lon="-1.969059">
        <ele>97.614484</ele>
        <time>2022-05-21T09:45:41.000Z</time>
      </trkpt>
      <trkpt lat="51.669193" lon="-1.969309">
        <ele>97.049915</ele>
        <time>2022-05-21T09:45:57.000Z</time>
      </trkpt>
      <trkpt lat="51.668237" lon="-1.969062">
        <ele>96.269328</ele>
        <time>2022-05-21T09:46:08.000Z</time>
      </trkpt>
      <trkpt lat="51.667983" lon="-1.968935">
        <ele>96.077417</ele>
        <time>2022-05-21T09:46:11.000Z</time>
      </trkpt>
      <trkpt lat="51.667935" lon="-1.968906">
        <ele>96.05449</ele>
        <time>2022-05-21T09:46:12.000Z</time>
      </trkpt>
      <trkpt lat="51.667867" lon="-1.968863">
        <ele>96.007354</ele>
        <time>2022-05-21T09:46:13.000Z</time>
      </trkpt>
      <trkpt lat="51.667428" lon="-1.968525">
        <ele>95.722645</ele>
        <time>2022-05-21T09:46:18.000Z</time>
      </trkpt>
      <trkpt lat="51.66739" lon="-1.968525">
        <ele>95.692241</ele>
        <time>2022-05-21T09:46:18.000Z</time>
      </trkpt>
      <trkpt lat="51.667316" lon="-1.968582">
        <ele>95.649999</ele>
        <time>2022-05-21T09:46:19.000Z</time>
      </trkpt>
      <trkpt lat="51.667258" lon="-1.968633">
        <ele>95.606393</ele>
        <time>2022-05-21T09:46:20.000Z</time>
      </trkpt>
      <trkpt lat="51.667207" lon="-1.96876">
        <ele>95.554946</ele>
        <time>2022-05-21T09:46:21.000Z</time>
      </trkpt>
      <trkpt lat="51.667088" lon="-1.969733">
        <ele>95.190198</ele>
        <time>2022-05-21T09:46:28.000Z</time>
      </trkpt>
      <trkpt lat="51.666965" lon="-1.971442">
        <ele>94.674984</ele>
        <time>2022-05-21T09:46:40.000Z</time>
      </trkpt>
      <trkpt lat="51.666903" lon="-1.971575">
        <ele>94.62875</ele>
        <time>2022-05-21T09:46:41.000Z</time>
      </trkpt>
      <trkpt lat="51.666736" lon="-1.971756">
        <ele>94.533706</ele>
        <time>2022-05-21T09:46:43.000Z</time>
      </trkpt>
      <trkpt lat="51.666287" lon="-1.97187">
        <ele>94.320257</ele>
        <time>2022-05-21T09:46:48.000Z</time>
      </trkpt>
      <trkpt lat="51.666118" lon="-1.971807">
        <ele>94.260059</ele>
        <time>2022-05-21T09:46:50.000Z</time>
      </trkpt>
      <trkpt lat="51.6655" lon="-1.971588">
        <ele>94.13699</ele>
        <time>2022-05-21T09:46:57.000Z</time>
      </trkpt>
      <trkpt lat="51.664289" lon="-1.97172">
        <ele>93.987075</ele>
        <time>2022-05-21T09:47:10.000Z</time>
      </trkpt>
      <trkpt lat="51.663506" lon="-1.972017">
        <ele>94.396168</ele>
        <time>2022-05-21T09:47:19.000Z</time>
      </trkpt>
      <trkpt lat="51.663003" lon="-1.972305">
        <ele>94.659375</ele>
        <time>2022-05-21T09:47:25.000Z</time>
      </trkpt>
      <trkpt lat="51.662568" lon="-1.972826">
        <ele>94.895566</ele>
        <time>2022-05-21T09:47:31.000Z</time>
      </trkpt>
      <trkpt lat="51.661929" lon="-1.973459">
        <ele>95.12625</ele>
        <time>2022-05-21T09:47:39.000Z</time>
      </trkpt>
      <trkpt lat="51.661298" lon="-1.9741">
        <ele>95.358276</ele>
        <time>2022-05-21T09:47:47.000Z</time>
      </trkpt>
      <trkpt lat="51.660628" lon="-1.974362">
        <ele>95.416389</ele>
        <time>2022-05-21T09:47:55.000Z</time>
      </trkpt>
      <trkpt lat="51.660553" lon="-1.974402">
        <ele>95.419992</ele>
        <time>2022-05-21T09:47:56.000Z</time>
      </trkpt>
      <trkpt lat="51.660051" lon="-1.974629">
        <ele>95.444804</ele>
        <time>2022-05-21T09:48:02.000Z</time>
      </trkpt>
      <trkpt lat="51.659557" lon="-1.974823">
        <ele>95.468491</ele>
        <time>2022-05-21T09:48:08.000Z</time>
      </trkpt>
      <trkpt lat="51.65949" lon="-1.974849">
        <ele>95.471383</ele>
        <time>2022-05-21T09:48:09.000Z</time>
      </trkpt>
      <trkpt lat="51.659113" lon="-1.974993">
        <ele>95.301549</ele>
        <time>2022-05-21T09:48:13.000Z</time>
      </trkpt>
      <trkpt lat="51.659021" lon="-1.974996">
        <ele>95.258606</ele>
        <time>2022-05-21T09:48:14.000Z</time>
      </trkpt>
      <trkpt lat="51.658889" lon="-1.974978">
        <ele>95.189522</ele>
        <time>2022-05-21T09:48:15.000Z</time>
      </trkpt>
      <trkpt lat="51.658764" lon="-1.974953">
        <ele>95.132548</ele>
        <time>2022-05-21T09:48:16.000Z</time>
      </trkpt>
      <trkpt lat="51.658579" lon="-1.974925">
        <ele>95.04204</ele>
        <time>2022-05-21T09:48:18.000Z</time>
      </trkpt>
      <trkpt lat="51.658509" lon="-1.974914">
        <ele>95.005742</ele>
        <time>2022-05-21T09:48:19.000Z</time>
      </trkpt>
      <trkpt lat="51.658268" lon="-1.974856">
        <ele>94.890761</ele>
        <time>2022-05-21T09:48:22.000Z</time>
      </trkpt>
      <trkpt lat="51.658096" lon="-1.974771">
        <ele>94.803502</ele>
        <time>2022-05-21T09:48:24.000Z</time>
      </trkpt>
      <trkpt lat="51.657948" lon="-1.974668">
        <ele>94.727822</ele>
        <time>2022-05-21T09:48:26.000Z</time>
      </trkpt>
      <trkpt lat="51.657929" lon="-1.974645">
        <ele>94.712107</ele>
        <time>2022-05-21T09:48:26.000Z</time>
      </trkpt>
      <trkpt lat="51.657774" lon="-1.974565">
        <ele>94.634138</ele>
        <time>2022-05-21T09:48:28.000Z</time>
      </trkpt>
      <trkpt lat="51.657479" lon="-1.974479">
        <ele>94.35535</ele>
        <time>2022-05-21T09:48:31.000Z</time>
      </trkpt>
      <trkpt lat="51.65714" lon="-1.974111">
        <ele>93.889555</ele>
        <time>2022-05-21T09:48:36.000Z</time>
      </trkpt>
      <trkpt lat="51.657105" lon="-1.974087">
        <ele>93.852789</ele>
        <time>2022-05-21T09:48:36.000Z</time>
      </trkpt>
      <trkpt lat="51.656934" lon="-1.973897">
        <ele>93.621714</ele>
        <time>2022-05-21T09:48:38.000Z</time>
      </trkpt>
      <trkpt lat="51.656889" lon="-1.973858">
        <ele>93.566753</ele>
        <time>2022-05-21T09:48:39.000Z</time>
      </trkpt>
      <trkpt lat="51.656678" lon="-1.973656">
        <ele>93.306715</ele>
        <time>2022-05-21T09:48:42.000Z</time>
      </trkpt>
      <trkpt lat="51.656431" lon="-1.973429">
        <ele>92.980964</ele>
        <time>2022-05-21T09:48:45.000Z</time>
      </trkpt>
      <trkpt lat="51.656152" lon="-1.973336">
        <ele>92.678432</ele>
        <time>2022-05-21T09:48:48.000Z</time>
      </trkpt>
      <trkpt lat="51.655851" lon="-1.973299">
        <ele>92.435647</ele>
        <time>2022-05-21T09:48:51.000Z</time>
      </trkpt>
      <trkpt lat="51.655728" lon="-1.97329">
        <ele>92.339361</ele>
        <time>2022-05-21T09:48:52.000Z</time>
      </trkpt>
      <trkpt lat="51.655602" lon="-1.973254">
        <ele>92.238831</ele>
        <time>2022-05-21T09:48:53.000Z</time>
      </trkpt>
      <trkpt lat="51.655405" lon="-1.973199">
        <ele>92.100261</ele>
        <time>2022-05-21T09:48:55.000Z</time>
      </trkpt>
      <trkpt lat="51.654725" lon="-1.972961">
        <ele>91.569922</ele>
        <time>2022-05-21T09:49:03.000Z</time>
      </trkpt>
      <trkpt lat="51.654433" lon="-1.97283">
        <ele>91.344292</ele>
        <time>2022-05-21T09:49:06.000Z</time>
      </trkpt>
      <trkpt lat="51.654198" lon="-1.972705">
        <ele>91.24751</ele>
        <time>2022-05-21T09:49:09.000Z</time>
      </trkpt>
      <trkpt lat="51.653968" lon="-1.972581">
        <ele>91.189667</ele>
        <time>2022-05-21T09:49:12.000Z</time>
      </trkpt>
      <trkpt lat="51.653911" lon="-1.97256">
        <ele>91.179383</ele>
        <time>2022-05-21T09:49:13.000Z</time>
      </trkpt>
      <trkpt lat="51.653373" lon="-1.972275">
        <ele>91.055051</ele>
        <time>2022-05-21T09:49:19.000Z</time>
      </trkpt>
      <trkpt lat="51.653069" lon="-1.972218">
        <ele>90.984532</ele>
        <time>2022-05-21T09:49:22.000Z</time>
      </trkpt>
      <trkpt lat="51.65284" lon="-1.972182">
        <ele>90.933151</ele>
        <time>2022-05-21T09:49:25.000Z</time>
      </trkpt>
      <trkpt lat="51.652565" lon="-1.972393">
        <ele>90.862177</ele>
        <time>2022-05-21T09:49:28.000Z</time>
      </trkpt>
      <trkpt lat="51.652361" lon="-1.973336">
        <ele>90.672484</ele>
        <time>2022-05-21T09:49:35.000Z</time>
      </trkpt>
      <trkpt lat="51.651757" lon="-1.974464">
        <ele>90.391562</ele>
        <time>2022-05-21T09:49:45.000Z</time>
      </trkpt>
      <trkpt lat="51.651699" lon="-1.974547">
        <ele>90.367711</ele>
        <time>2022-05-21T09:49:46.000Z</time>
      </trkpt>
      <trkpt lat="51.651614" lon="-1.974661">
        <ele>90.334164</ele>
        <time>2022-05-21T09:49:47.000Z</time>
      </trkpt>
      <trkpt lat="51.651502" lon="-1.974772">
        <ele>90.301078</ele>
        <time>2022-05-21T09:49:48.000Z</time>
      </trkpt>
      <trkpt lat="51.65138" lon="-1.974838">
        <ele>90.268255</ele>
        <time>2022-05-21T09:49:49.000Z</time>
      </trkpt>
      <trkpt lat="51.651319" lon="-1.974869">
        <ele>90.250509</ele>
        <time>2022-05-21T09:49:50.000Z</time>
      </trkpt>
      <trkpt lat="51.650602" lon="-1.974807">
        <ele>90.060093</ele>
        <time>2022-05-21T09:49:58.000Z</time>
      </trkpt>
      <trkpt lat="51.650613" lon="-1.974718">
        <ele>90.04317</ele>
        <time>2022-05-21T09:49:59.000Z</time>
      </trkpt>
      <trkpt lat="51.650623" lon="-1.974382">
        <ele>89.988498</ele>
        <time>2022-05-21T09:50:01.000Z</time>
      </trkpt>
      <trkpt lat="51.650636" lon="-1.974379">
        <ele>89.987349</ele>
        <time>2022-05-21T09:50:01.000Z</time>
      </trkpt>
      <trkpt lat="51.650683" lon="-1.973426">
        <ele>89.83626</ele>
        <time>2022-05-21T09:50:08.000Z</time>
      </trkpt>
      <trkpt lat="51.65071" lon="-1.973121">
        <ele>89.796622</ele>
        <time>2022-05-21T09:50:10.000Z</time>
      </trkpt>
      <trkpt lat="51.650733" lon="-1.972898">
        <ele>89.766626</ele>
        <time>2022-05-21T09:50:12.000Z</time>
      </trkpt>
      <trkpt lat="51.650775" lon="-1.972132">
        <ele>89.662783</ele>
        <time>2022-05-21T09:50:17.000Z</time>
      </trkpt>
      <trkpt lat="51.650912" lon="-1.971082">
        <ele>89.520967</ele>
        <time>2022-05-21T09:50:24.000Z</time>
      </trkpt>
      <trkpt lat="51.650945" lon="-1.970865">
        <ele>89.492047</ele>
        <time>2022-05-21T09:50:26.000Z</time>
      </trkpt>
      <trkpt lat="51.651143" lon="-1.969817">
        <ele>89.235956</ele>
        <time>2022-05-21T09:50:34.000Z</time>
      </trkpt>
      <trkpt lat="51.651483" lon="-1.968639">
        <ele>88.914889</ele>
        <time>2022-05-21T09:50:43.000Z</time>
      </trkpt>
      <trkpt lat="51.651998" lon="-1.967168">
        <ele>88.753407</ele>
        <time>2022-05-21T09:50:55.000Z</time>
      </trkpt>
      <trkpt lat="51.652381" lon="-1.966345">
        <ele>88.748394</ele>
        <time>2022-05-21T09:51:02.000Z</time>
      </trkpt>
      <trkpt lat="51.652854" lon="-1.965487">
        <ele>88.767555</ele>
        <time>2022-05-21T09:51:10.000Z</time>
      </trkpt>
      <trkpt lat="51.653165" lon="-1.964893">
        <ele>88.822166</ele>
        <time>2022-05-21T09:51:15.000Z</time>
      </trkpt>
      <trkpt lat="51.653808" lon="-1.963635">
        <ele>88.935768</ele>
        <time>2022-05-21T09:51:26.000Z</time>
      </trkpt>
      <trkpt lat="51.653936" lon="-1.963318">
        <ele>88.85759</ele>
        <time>2022-05-21T09:51:29.000Z</time>
      </trkpt>
      <trkpt lat="51.654291" lon="-1.962339">
        <ele>88.367119</ele>
        <time>2022-05-21T09:51:37.000Z</time>
      </trkpt>
      <trkpt lat="51.65462" lon="-1.961274">
        <ele>87.852422</ele>
        <time>2022-05-21T09:51:45.000Z</time>
      </trkpt>
      <trkpt lat="51.654786" lon="-1.960595">
        <ele>87.718584</ele>
        <time>2022-05-21T09:51:50.000Z</time>
      </trkpt>
      <trkpt lat="51.654912" lon="-1.960061">
        <ele>87.759007</ele>
        <time>2022-05-21T09:51:54.000Z</time>
      </trkpt>
      <trkpt lat="51.656313" lon="-1.953601">
        <ele>88.534482</ele>
        <time>2022-05-21T09:52:41.000Z</time>
      </trkpt>
      <trkpt lat="51.65633" lon="-1.953202">
        <ele>88.619908</ele>
        <time>2022-05-21T09:52:44.000Z</time>
      </trkpt>
      <trkpt lat="51.65594" lon="-1.948964">
        <ele>89.420365</ele>
        <time>2022-05-21T09:53:14.000Z</time>
      </trkpt>
      <trkpt lat="51.655864" lon="-1.948159">
        <ele>89.389532</ele>
        <time>2022-05-21T09:53:20.000Z</time>
      </trkpt>
      <trkpt lat="51.6552" lon="-1.943524">
        <ele>88.814379</ele>
        <time>2022-05-21T09:53:53.000Z</time>
      </trkpt>
      <trkpt lat="51.654952" lon="-1.94184">
        <ele>88.932225</ele>
        <time>2022-05-21T09:54:05.000Z</time>
      </trkpt>
      <trkpt lat="51.654721" lon="-1.940625">
        <ele>88.890998</ele>
        <time>2022-05-21T09:54:14.000Z</time>
      </trkpt>
      <trkpt lat="51.654703" lon="-1.940566">
        <ele>88.884597</ele>
        <time>2022-05-21T09:54:14.000Z</time>
      </trkpt>
      <trkpt lat="51.654501" lon="-1.939474">
        <ele>88.766406</ele>
        <time>2022-05-21T09:54:22.000Z</time>
      </trkpt>
      <trkpt lat="51.654474" lon="-1.939045">
        <ele>88.721805</ele>
        <time>2022-05-21T09:54:25.000Z</time>
      </trkpt>
      <trkpt lat="51.654577" lon="-1.939073">
        <ele>88.704461</ele>
        <time>2022-05-21T09:54:26.000Z</time>
      </trkpt>
      <trkpt lat="51.655198" lon="-1.939294">
        <ele>88.183786</ele>
        <time>2022-05-21T09:54:33.000Z</time>
      </trkpt>
      <trkpt lat="51.655635" lon="-1.939611">
        <ele>87.650277</ele>
        <time>2022-05-21T09:54:38.000Z</time>
      </trkpt>
      <trkpt lat="51.65576" lon="-1.939691">
        <ele>87.481369</ele>
        <time>2022-05-21T09:54:39.000Z</time>
      </trkpt>
      <trkpt lat="51.656496" lon="-1.940174">
        <ele>86.572542876</ele>
        <time>2022-05-21T09:54:48.000Z</time>
      </trkpt>
      <trkpt lat="51.657034" lon="-1.940414">
        <ele>85.9341216715</ele>
        <time>2022-05-21T09:54:54.000Z</time>
      </trkpt>
      <trkpt lat="51.657627" lon="-1.940827">
        <ele>85.1953323896</ele>
        <time>2022-05-21T09:55:01.000Z</time>
      </trkpt>
      <trkpt lat="51.658241" lon="-1.941348">
        <ele>84.4017734101</ele>
        <time>2022-05-21T09:55:09.000Z</time>
      </trkpt>
    </trkseg>
  </trk>
</gpx>

<!--
Performance optimized by W3 Total Cache. Learn more: https://www.boldgrid.com/w3-total-cache/?utm_source=w3tc&utm_medium=footer_comment&utm_campaign=free_plugin

Page Caching using Disk: Enhanced{w3tc_pagecache_reject_reason} 

Served from: www.aquabike.world @ 2026-05-09 22:47:37 by W3 Total Cache
-->